sensor_id;sensor_type;location;lat;lon;timestamp;pressure;altitude;pressure_sealevel;temperature;humidity
9035;BME280;4552;43.422;24.592;2023-02-25T00:01:20;99230.75;;;5.08;100.00
9035;BME280;4552;43.422;24.592;2023-02-25T00:03:51;99241.13;;;5.08;100.00
9035;BME280;4552;43.422;24.592;2023-02-25T00:06:19;99231.59;;;5.13;100.00
9035;BME280;4552;43.422;24.592;2023-02-25T00:08:50;99221.22;;;5.11;100.00
9035;BME280;4552;43.422;24.592;2023-02-25T00:11:19;99214.28;;;5.10;100.00
9035;BME280;4552;43.422;24.592;2023-02-25T00:13:49;99201.38;;;5.03;100.00
9035;BME280;4552;43.422;24.592;2023-02-25T00:16:18;99227.28;;;5.13;100.00
9035;BME280;4552;43.422;24.592;2023-02-25T00:18:45;99208.31;;;5.01;100.00
9035;BME280;4552;43.422;24.592;2023-02-25T00:21:15;99209.16;;;4.95;100.00
9035;BME280;4552;43.422;24.592;2023-02-25T00:23:44;99209.19;;;4.85;100.00
9035;BME280;4552;43.422;24.592;2023-02-25T00:26:15;99199.72;;;4.78;100.00
9035;BME280;4552;43.422;24.592;2023-02-25T00:28:46;99198.00;;;4.83;100.00
9035;BME280;4552;43.422;24.592;2023-02-25T00:31:16;99206.53;;;5.06;100.00
9035;BME280;4552;43.422;24.592;2023-02-25T00:33:44;99182.41;;;4.95;100.00
9035;BME280;4552;43.422;24.592;2023-02-25T00:36:14;99180.66;;;4.94;100.00
9035;BME280;4552;43.422;24.592;2023-02-25T00:38:45;99181.53;;;4.90;100.00
9035;BME280;4552;43.422;24.592;2023-02-25T00:41:15;99188.44;;;4.92;100.00
9035;BME280;4552;43.422;24.592;2023-02-25T00:43:48;99188.44;;;4.89;100.00
9035;BME280;4552;43.422;24.592;2023-02-25T00:46:16;99177.25;;;4.83;100.00
9035;BME280;4552;43.422;24.592;2023-02-25T00:48:43;99166.88;;;4.77;100.00
9035;BME280;4552;43.422;24.592;2023-02-25T00:51:13;99150.56;;;4.60;100.00
9035;BME280;4552;43.422;24.592;2023-02-25T00:53:42;99153.97;;;4.60;100.00
9035;BME280;4552;43.422;24.592;2023-02-25T00:56:10;99174.72;;;4.60;100.00
9035;BME280;4552;43.422;24.592;2023-02-25T00:58:41;99166.06;;;4.70;100.00
9035;BME280;4552;43.422;24.592;2023-02-25T01:01:17;99156.53;;;4.69;100.00
9035;BME280;4552;43.422;24.592;2023-02-25T01:03:45;99173.78;;;4.87;100.00
9035;BME280;4552;43.422;24.592;2023-02-25T01:06:14;99167.75;;;4.79;100.00
9035;BME280;4552;43.422;24.592;2023-02-25T01:08:44;99152.19;;;4.79;100.00
9035;BME280;4552;43.422;24.592;2023-02-25T01:11:13;99160.84;;;4.82;100.00
9035;BME280;4552;43.422;24.592;2023-02-25T01:13:53;99161.69;;;4.87;100.00
9035;BME280;4552;43.422;24.592;2023-02-25T01:16:24;99125.47;;;4.62;100.00
9035;BME280;4552;43.422;24.592;2023-02-25T01:18:56;99139.25;;;4.73;100.00
9035;BME280;4552;43.422;24.592;2023-02-25T01:21:27;99131.53;;;4.59;100.00
9035;BME280;4552;43.422;24.592;2023-02-25T01:24:00;99104.81;;;4.47;100.00
9035;BME280;4552;43.422;24.592;2023-02-25T01:26:29;99143.63;;;4.59;100.00
9035;BME280;4552;43.422;24.592;2023-02-25T01:29:01;99134.09;;;4.67;100.00
9035;BME280;4552;43.422;24.592;2023-02-25T01:31:28;99138.38;;;4.78;100.00
9035;BME280;4552;43.422;24.592;2023-02-25T01:33:58;99120.22;;;4.80;100.00
9035;BME280;4552;43.422;24.592;2023-02-25T01:36:29;99114.19;;;4.82;100.00
9035;BME280;4552;43.422;24.592;2023-02-25T01:38:57;99099.47;;;4.89;100.00
9035;BME280;4552;43.422;24.592;2023-02-25T01:41:26;99129.63;;;5.05;100.00
9035;BME280;4552;43.422;24.592;2023-02-25T01:44:13;99118.50;;;4.82;100.00
9035;BME280;4552;43.422;24.592;2023-02-25T01:46:45;99097.78;;;4.77;100.00
9035;BME280;4552;43.422;24.592;2023-02-25T01:49:20;99128.72;;;5.09;100.00
9035;BME280;4552;43.422;24.592;2023-02-25T01:51:59;99086.63;;;4.56;100.00
9035;BME280;4552;43.422;24.592;2023-02-25T01:54:29;99117.78;;;4.33;100.00
9035;BME280;4552;43.422;24.592;2023-02-25T01:56:58;99099.75;;;3.99;100.00
9035;BME280;4552;43.422;24.592;2023-02-25T01:59:28;99123.84;;;4.16;100.00
9035;BME280;4552;43.422;24.592;2023-02-25T02:01:56;99116.97;;;4.03;100.00
9035;BME280;4552;43.422;24.592;2023-02-25T02:04:26;99089.38;;;3.64;100.00
9035;BME280;4552;43.422;24.592;2023-02-25T02:06:53;99113.53;;;3.81;100.00
9035;BME280;4552;43.422;24.592;2023-02-25T02:09:26;99091.13;;;3.64;100.00
9035;BME280;4552;43.422;24.592;2023-02-25T02:11:56;99084.22;;;3.64;100.00
9035;BME280;4552;43.422;24.592;2023-02-25T02:14:38;99083.38;;;3.73;100.00
9035;BME280;4552;43.422;24.592;2023-02-25T02:17:19;99086.78;;;3.81;100.00
9035;BME280;4552;43.422;24.592;2023-02-25T02:20:04;99082.47;;;3.89;100.00
9035;BME280;4552;43.422;24.592;2023-02-25T02:22:47;99068.69;;;3.81;100.00
9035;BME280;4552;43.422;24.592;2023-02-25T02:28:20;99087.66;;;3.98;100.00
9035;BME280;4552;43.422;24.592;2023-02-25T02:31:12;99060.06;;;3.82;100.00
9035;BME280;4552;43.422;24.592;2023-02-25T02:33:45;99085.06;;;3.93;100.00
9035;BME280;4552;43.422;24.592;2023-02-25T02:36:24;99085.91;;;4.00;100.00
9035;BME280;4552;43.422;24.592;2023-02-25T02:39:03;99064.34;;;3.99;100.00
9035;BME280;4552;43.422;24.592;2023-02-25T02:41:35;99061.72;;;4.10;100.00
9035;BME280;4552;43.422;24.592;2023-02-25T02:44:04;99029.88;;;3.90;100.00
9035;BME280;4552;43.422;24.592;2023-02-25T02:46:39;99035.03;;;4.03;100.00
9035;BME280;4552;43.422;24.592;2023-02-25T02:49:12;99056.53;;;4.28;100.00
9035;BME280;4552;43.422;24.592;2023-02-25T02:51:45;99053.94;;;4.25;100.00
9035;BME280;4552;43.422;24.592;2023-02-25T02:54:15;99059.06;;;4.38;100.00
9035;BME280;4552;43.422;24.592;2023-02-25T02:56:45;99063.38;;;4.44;100.00
9035;BME280;4552;43.422;24.592;2023-02-25T02:59:19;99057.34;;;4.34;100.00
9035;BME280;4552;43.422;24.592;2023-02-25T03:01:53;99040.19;;;4.08;100.00
9035;BME280;4552;43.422;24.592;2023-02-25T03:04:26;99055.66;;;4.26;100.00
9035;BME280;4552;43.422;24.592;2023-02-25T03:06:59;99053.00;;;4.44;100.00
9035;BME280;4552;43.422;24.592;2023-02-25T03:09:29;99046.09;;;4.46;100.00
9035;BME280;4552;43.422;24.592;2023-02-25T03:11:56;99044.34;;;4.45;100.00
9035;BME280;4552;43.422;24.592;2023-02-25T03:14:23;99050.38;;;4.51;100.00
9035;BME280;4552;43.422;24.592;2023-02-25T03:16:56;99037.50;;;4.38;100.00
9035;BME280;4552;43.422;24.592;2023-02-25T03:19:26;99049.56;;;4.39;100.00
9035;BME280;4552;43.422;24.592;2023-02-25T03:22:01;99052.13;;;4.55;100.00
9035;BME280;4552;43.422;24.592;2023-02-25T03:24:36;99033.16;;;4.41;100.00
9035;BME280;4552;43.422;24.592;2023-02-25T03:27:24;99043.53;;;4.38;100.00
9035;BME280;4552;43.422;24.592;2023-02-25T03:29:54;98997.88;;;4.12;100.00
9035;BME280;4552;43.422;24.592;2023-02-25T03:32:26;99009.09;;;4.11;100.00
9035;BME280;4552;43.422;24.592;2023-02-25T03:34:54;98995.31;;;4.01;100.00
9035;BME280;4552;43.422;24.592;2023-02-25T03:37:25;99019.47;;;4.06;100.00
9035;BME280;4552;43.422;24.592;2023-02-25T03:39:57;99003.09;;;3.97;100.00
9035;BME280;4552;43.422;24.592;2023-02-25T03:42:33;99004.75;;;4.16;100.00
9035;BME280;4552;43.422;24.592;2023-02-25T03:45:02;99032.28;;;4.47;100.00
9035;BME280;4552;43.422;24.592;2023-02-25T03:47:36;99022.84;;;4.35;100.00
9035;BME280;4552;43.422;24.592;2023-02-25T03:50:09;99004.72;;;4.31;100.00
9035;BME280;4552;43.422;24.592;2023-02-25T03:52:40;99011.69;;;4.14;100.00
9035;BME280;4552;43.422;24.592;2023-02-25T03:55:08;99026.31;;;4.25;100.00
9035;BME280;4552;43.422;24.592;2023-02-25T03:57:38;99028.13;;;3.95;100.00
9035;BME280;4552;43.422;24.592;2023-02-25T04:00:14;99025.56;;;3.83;100.00
9035;BME280;4552;43.422;24.592;2023-02-25T04:02:46;99022.13;;;3.73;100.00
9035;BME280;4552;43.422;24.592;2023-02-25T04:05:14;99009.19;;;3.72;100.00
9035;BME280;4552;43.422;24.592;2023-02-25T04:07:42;99019.53;;;3.75;100.00
9035;BME280;4552;43.422;24.592;2023-02-25T04:10:13;99014.38;;;3.56;100.00
9035;BME280;4552;43.422;24.592;2023-02-25T04:12:43;98994.59;;;3.34;100.00
9035;BME280;4552;43.422;24.592;2023-02-25T04:15:12;99004.06;;;3.35;100.00
9035;BME280;4552;43.422;24.592;2023-02-25T04:17:41;98992.00;;;3.40;100.00
9035;BME280;4552;43.422;24.592;2023-02-25T04:20:15;98994.56;;;3.19;100.00
9035;BME280;4552;43.422;24.592;2023-02-25T04:22:45;98995.44;;;3.27;100.00
9035;BME280;4552;43.422;24.592;2023-02-25T04:25:14;98986.81;;;3.33;100.00
9035;BME280;4552;43.422;24.592;2023-02-25T04:27:47;98986.84;;;3.25;100.00
9035;BME280;4552;43.422;24.592;2023-02-25T04:30:15;98992.84;;;3.12;100.00
9035;BME280;4552;43.422;24.592;2023-02-25T04:32:43;98992.84;;;3.06;100.00
9035;BME280;4552;43.422;24.592;2023-02-25T04:35:10;98989.38;;;3.04;100.00
9035;BME280;4552;43.422;24.592;2023-02-25T04:37:40;98991.13;;;3.05;100.00
9035;BME280;4552;43.422;24.592;2023-02-25T04:40:12;98977.34;;;3.12;100.00
9035;BME280;4552;43.422;24.592;2023-02-25T04:42:41;98974.75;;;3.06;100.00
9035;BME280;4552;43.422;24.592;2023-02-25T04:45:13;98966.13;;;2.80;100.00
9035;BME280;4552;43.422;24.592;2023-02-25T04:47:43;98991.09;;;2.81;100.00
9035;BME280;4552;43.422;24.592;2023-02-25T04:50:12;98953.19;;;2.65;100.00
9035;BME280;4552;43.422;24.592;2023-02-25T04:52:41;98991.97;;;2.95;100.00
9035;BME280;4552;43.422;24.592;2023-02-25T04:55:08;98980.75;;;2.83;100.00
9035;BME280;4552;43.422;24.592;2023-02-25T04:57:36;98958.38;;;2.89;100.00
9035;BME280;4552;43.422;24.592;2023-02-25T05:00:11;98985.97;;;3.14;100.00
9035;BME280;4552;43.422;24.592;2023-02-25T05:02:41;98969.59;;;3.00;100.00
9035;BME280;4552;43.422;24.592;2023-02-25T05:05:09;98971.28;;;2.94;100.00
9035;BME280;4552;43.422;24.592;2023-02-25T05:07:36;98975.59;;;2.87;100.00
9035;BME280;4552;43.422;24.592;2023-02-25T05:10:11;98949.72;;;2.63;100.00
9035;BME280;4552;43.422;24.592;2023-02-25T05:12:39;98949.75;;;2.72;100.00
9035;BME280;4552;43.422;24.592;2023-02-25T05:15:08;98967.88;;;3.08;100.00
9035;BME280;4552;43.422;24.592;2023-02-25T05:17:37;98955.78;;;3.06;100.00
9035;BME280;4552;43.422;24.592;2023-02-25T05:20:08;98968.72;;;3.13;100.00
9035;BME280;4552;43.422;24.592;2023-02-25T05:22:37;98970.44;;;3.35;100.00
9035;BME280;4552;43.422;24.592;2023-02-25T05:25:08;98972.16;;;3.58;100.00
9035;BME280;4552;43.422;24.592;2023-02-25T05:27:35;98975.56;;;3.63;100.00
9035;BME280;4552;43.422;24.592;2023-02-25T05:30:03;98966.13;;;3.55;100.00
9035;BME280;4552;43.422;24.592;2023-02-25T05:32:31;98952.31;;;3.46;100.00
9035;BME280;4552;43.422;24.592;2023-02-25T05:34:58;98971.28;;;3.62;100.00
9035;BME280;4552;43.422;24.592;2023-02-25T05:37:25;98973.84;;;3.63;100.00
9035;BME280;4552;43.422;24.592;2023-02-25T05:39:52;98958.28;;;3.80;100.00
9035;BME280;4552;43.422;24.592;2023-02-25T05:42:21;98937.59;;;3.80;100.00
9035;BME280;4552;43.422;24.592;2023-02-25T05:44:48;98952.25;;;3.90;100.00
9035;BME280;4552;43.422;24.592;2023-02-25T05:47:16;98965.16;;;3.91;100.00
9035;BME280;4552;43.422;24.592;2023-02-25T05:49:44;98957.28;;;4.20;100.00
9035;BME280;4552;43.422;24.592;2023-02-25T05:52:13;98959.03;;;4.13;100.00
9035;BME280;4552;43.422;24.592;2023-02-25T05:54:40;98968.44;;;4.37;100.00
9035;BME280;4552;43.422;24.592;2023-02-25T05:57:09;98979.56;;;4.55;100.00
9035;BME280;4552;43.422;24.592;2023-02-25T05:59:37;98961.31;;;4.75;100.00
9035;BME280;4552;43.422;24.592;2023-02-25T06:02:04;98978.44;;;4.94;100.00
9035;BME280;4552;43.422;24.592;2023-02-25T06:04:35;98957.56;;;5.12;100.00
9035;BME280;4552;43.422;24.592;2023-02-25T06:07:02;98938.56;;;5.13;100.00
9035;BME280;4552;43.422;24.592;2023-02-25T06:09:30;98958.16;;;5.47;100.00
9035;BME280;4552;43.422;24.592;2023-02-25T06:11:59;98957.09;;;5.63;100.00
9035;BME280;4552;43.422;24.592;2023-02-25T06:14:26;98956.91;;;5.84;100.00
9035;BME280;4552;43.422;24.592;2023-02-25T06:16:55;98959.47;;;5.89;100.00
9035;BME280;4552;43.422;24.592;2023-02-25T06:19:23;98963.66;;;6.00;99.10
9035;BME280;4552;43.422;24.592;2023-02-25T06:21:50;98952.06;;;6.27;99.62
9035;BME280;4552;43.422;24.592;2023-02-25T06:24:19;98926.19;;;6.19;97.33
9035;BME280;4552;43.422;24.592;2023-02-25T06:26:46;98954.31;;;6.55;97.31
9035;BME280;4552;43.422;24.592;2023-02-25T06:29:15;98943.69;;;6.70;95.77
9035;BME280;4552;43.422;24.592;2023-02-25T06:31:42;98954.00;;;6.76;95.25
9035;BME280;4552;43.422;24.592;2023-02-25T06:34:15;98956.47;;;6.85;95.10
9035;BME280;4552;43.422;24.592;2023-02-25T06:36:43;98934.72;;;6.89;95.41
9035;BME280;4552;43.422;24.592;2023-02-25T06:39:11;98961.16;;;7.17;93.74
9035;BME280;4552;43.422;24.592;2023-02-25T06:41:41;98944.72;;;7.17;93.12
9035;BME280;4552;43.422;24.592;2023-02-25T06:44:09;98958.22;;;7.40;92.72
9035;BME280;4552;43.422;24.592;2023-02-25T06:46:36;98956.47;;;7.39;91.80
9035;BME280;4552;43.422;24.592;2023-02-25T06:49:06;98956.22;;;7.54;90.56
9035;BME280;4552;43.422;24.592;2023-02-25T06:51:34;98924.88;;;7.58;91.13
9035;BME280;4552;43.422;24.592;2023-02-25T06:54:03;98928.72;;;7.39;89.32
9035;BME280;4552;43.422;24.592;2023-02-25T06:56:59;98905.47;;;7.29;90.89
9035;BME280;4552;43.422;24.592;2023-02-25T06:59:26;98909.78;;;7.30;89.65
9035;BME280;4552;43.422;24.592;2023-02-25T07:01:53;98938.31;;;7.83;90.72
9035;BME280;4552;43.422;24.592;2023-02-25T07:04:21;98938.28;;;7.84;88.50
9035;BME280;4552;43.422;24.592;2023-02-25T07:06:51;98925.72;;;8.06;88.30
9035;BME280;4552;43.422;24.592;2023-02-25T07:09:21;98936.44;;;8.35;86.77
9035;BME280;4552;43.422;24.592;2023-02-25T07:11:48;98904.84;;;8.06;85.67
9035;BME280;4552;43.422;24.592;2023-02-25T07:14:15;98909.03;;;8.14;85.76
9035;BME280;4552;43.422;24.592;2023-02-25T07:16:42;98925.16;;;8.33;85.16
9035;BME280;4552;43.422;24.592;2023-02-25T07:19:10;98909.59;;;8.69;84.84
9035;BME280;4552;43.422;24.592;2023-02-25T07:21:41;98922.78;;;9.00;83.57
9035;BME280;4552;43.422;24.592;2023-02-25T07:24:11;98909.44;;;9.12;81.60
9035;BME280;4552;43.422;24.592;2023-02-25T07:26:40;98909.28;;;9.18;81.63
9035;BME280;4552;43.422;24.592;2023-02-25T07:29:07;98903.53;;;9.39;81.32
9035;BME280;4552;43.422;24.592;2023-02-25T07:31:34;98912.28;;;9.70;80.17
9035;BME280;4552;43.422;24.592;2023-02-25T07:34:01;98900.50;;;9.86;78.68
9035;BME280;4552;43.422;24.592;2023-02-25T07:36:37;98913.47;;;10.21;79.15
9035;BME280;4552;43.422;24.592;2023-02-25T07:39:05;98916.25;;;10.74;77.79
9035;BME280;4552;43.422;24.592;2023-02-25T07:41:35;98922.25;;;11.05;76.00
9035;BME280;4552;43.422;24.592;2023-02-25T07:44:03;98920.25;;;11.39;74.64
9035;BME280;4552;43.422;24.592;2023-02-25T07:46:31;98913.78;;;11.99;73.26
9035;BME280;4552;43.422;24.592;2023-02-25T07:49:06;98897.91;;;12.04;70.58
9035;BME280;4552;43.422;24.592;2023-02-25T07:51:34;98913.53;;;12.30;68.64
9035;BME280;4552;43.422;24.592;2023-02-25T07:54:01;98893.66;;;12.46;68.42
9035;BME280;4552;43.422;24.592;2023-02-25T07:56:29;98877.72;;;12.74;66.72
9035;BME280;4552;43.422;24.592;2023-02-25T07:58:58;98903.06;;;12.96;65.76
9035;BME280;4552;43.422;24.592;2023-02-25T08:01:27;98909.94;;;13.22;65.12
9035;BME280;4552;43.422;24.592;2023-02-25T08:03:56;98914.28;;;13.23;65.05
9035;BME280;4552;43.422;24.592;2023-02-25T08:06:24;98890.25;;;13.10;65.21
9035;BME280;4552;43.422;24.592;2023-02-25T08:08:51;98908.16;;;13.22;64.75
9035;BME280;4552;43.422;24.592;2023-02-25T08:11:21;98895.94;;;13.21;65.49
9035;BME280;4552;43.422;24.592;2023-02-25T08:13:53;98888.97;;;13.40;64.95
9035;BME280;4552;43.422;24.592;2023-02-25T08:16:31;98893.59;;;13.35;65.27
9035;BME280;4552;43.422;24.592;2023-02-25T08:19:00;98894.19;;;13.82;63.87
9035;BME280;4552;43.422;24.592;2023-02-25T08:21:28;98903.75;;;13.84;62.11
9035;BME280;4552;43.422;24.592;2023-02-25T08:23:55;98902.59;;;14.10;61.59
9035;BME280;4552;43.422;24.592;2023-02-25T08:26:23;98897.63;;;14.24;60.54
9035;BME280;4552;43.422;24.592;2023-02-25T08:28:52;98890.66;;;14.42;59.38
9035;BME280;4552;43.422;24.592;2023-02-25T08:31:19;98873.88;;;14.44;58.87
9035;BME280;4552;43.422;24.592;2023-02-25T08:33:49;98885.59;;;14.56;58.48
9035;BME280;4552;43.422;24.592;2023-02-25T08:36:19;98883.63;;;14.61;58.65
9035;BME280;4552;43.422;24.592;2023-02-25T08:38:47;98872.28;;;14.59;58.95
9035;BME280;4552;43.422;24.592;2023-02-25T08:41:16;98890.22;;;14.51;59.03
9035;BME280;4552;43.422;24.592;2023-02-25T08:43:47;98875.81;;;14.21;59.89
9035;BME280;4552;43.422;24.592;2023-02-25T08:46:18;98876.28;;;14.30;60.89
9035;BME280;4552;43.422;24.592;2023-02-25T08:49:00;98846.16;;;14.36;60.39
9035;BME280;4552;43.422;24.592;2023-02-25T08:51:27;98844.69;;;14.49;60.52
9035;BME280;4552;43.422;24.592;2023-02-25T08:53:58;98858.31;;;14.75;59.79
9035;BME280;4552;43.422;24.592;2023-02-25T08:56:26;98840.09;;;14.71;59.08
9035;BME280;4552;43.422;24.592;2023-02-25T08:58:53;98830.53;;;14.87;58.66
9035;BME280;4552;43.422;24.592;2023-02-25T09:01:21;98805.72;;;14.74;58.96
9035;BME280;4552;43.422;24.592;2023-02-25T09:03:48;98821.41;;;14.40;59.33
9035;BME280;4552;43.422;24.592;2023-02-25T09:06:21;98830.56;;;14.68;58.58
9035;BME280;4552;43.422;24.592;2023-02-25T09:08:49;98851.91;;;14.81;57.92
9035;BME280;4552;43.422;24.592;2023-02-25T09:11:17;98838.19;;;15.10;57.52
9035;BME280;4552;43.422;24.592;2023-02-25T09:13:44;98815.69;;;15.20;57.38
9035;BME280;4552;43.422;24.592;2023-02-25T09:16:12;98826.88;;;15.59;56.59
9035;BME280;4552;43.422;24.592;2023-02-25T09:18:42;98819.34;;;15.69;56.35
9035;BME280;4552;43.422;24.592;2023-02-25T09:21:10;98817.53;;;15.86;55.30
9035;BME280;4552;43.422;24.592;2023-02-25T09:23:39;98819.94;;;15.91;52.88
9035;BME280;4552;43.422;24.592;2023-02-25T09:26:06;98790.16;;;16.04;51.92
9035;BME280;4552;43.422;24.592;2023-02-25T09:28:33;98813.13;;;16.02;52.30
9035;BME280;4552;43.422;24.592;2023-02-25T09:31:01;98807.81;;;16.19;51.47
9035;BME280;4552;43.422;24.592;2023-02-25T09:33:29;98814.69;;;16.22;52.47
9035;BME280;4552;43.422;24.592;2023-02-25T09:36:03;98797.25;;;16.19;52.11
9035;BME280;4552;43.422;24.592;2023-02-25T09:38:30;98795.44;;;16.04;51.82
9035;BME280;4552;43.422;24.592;2023-02-25T09:40:59;98791.81;;;15.74;51.75
9035;BME280;4552;43.422;24.592;2023-02-25T09:43:28;98758.03;;;15.63;51.50
9035;BME280;4552;43.422;24.592;2023-02-25T09:46:03;98767.41;;;15.86;51.02
9035;BME280;4552;43.422;24.592;2023-02-25T09:48:33;98775.28;;;15.71;51.17
9035;BME280;4552;43.422;24.592;2023-02-25T09:51:10;98771.97;;;15.50;51.43
9035;BME280;4552;43.422;24.592;2023-02-25T09:53:50;98778.72;;;15.38;52.61
9035;BME280;4552;43.422;24.592;2023-02-25T09:56:23;98781.59;;;15.51;52.16
9035;BME280;4552;43.422;24.592;2023-02-25T09:58:55;98780.47;;;15.72;52.27
9035;BME280;4552;43.422;24.592;2023-02-25T10:01:28;98786.88;;;15.51;53.71
9035;BME280;4552;43.422;24.592;2023-02-25T10:04:02;98783.16;;;15.38;53.85
9035;BME280;4552;43.422;24.592;2023-02-25T10:06:37;98759.09;;;15.10;54.18
9035;BME280;4552;43.422;24.592;2023-02-25T10:09:15;98746.00;;;15.08;54.72
9035;BME280;4552;43.422;24.592;2023-02-25T10:11:52;98750.03;;;15.32;54.41
9035;BME280;4552;43.422;24.592;2023-02-25T10:14:39;98740.88;;;15.72;53.25
9035;BME280;4552;43.422;24.592;2023-02-25T10:17:18;98716.97;;;15.75;52.36
9035;BME280;4552;43.422;24.592;2023-02-25T10:20:02;98723.56;;;15.99;52.43
9035;BME280;4552;43.422;24.592;2023-02-25T10:22:46;98709.31;;;16.02;51.45
9035;BME280;4552;43.422;24.592;2023-02-25T10:25:19;98703.72;;;16.54;50.65
9035;BME280;4552;43.422;24.592;2023-02-25T10:27:50;98714.69;;;16.62;50.42
9035;BME280;4552;43.422;24.592;2023-02-25T10:30:22;98700.16;;;16.85;50.30
9035;BME280;4552;43.422;24.592;2023-02-25T10:32:50;98688.69;;;16.70;49.67
9035;BME280;4552;43.422;24.592;2023-02-25T10:35:21;98693.75;;;16.13;51.31
9035;BME280;4552;43.422;24.592;2023-02-25T10:37:49;98686.19;;;15.76;53.72
9035;BME280;4552;43.422;24.592;2023-02-25T10:40:20;98700.31;;;15.90;52.90
9035;BME280;4552;43.422;24.592;2023-02-25T10:42:52;98667.78;;;16.05;52.33
9035;BME280;4552;43.422;24.592;2023-02-25T10:45:24;98686.16;;;15.91;53.23
9035;BME280;4552;43.422;24.592;2023-02-25T10:47:59;98687.56;;;15.98;54.21
9035;BME280;4552;43.422;24.592;2023-02-25T10:50:29;98685.50;;;15.88;53.86
9035;BME280;4552;43.422;24.592;2023-02-25T10:52:59;98679.19;;;15.75;53.00
9035;BME280;4552;43.422;24.592;2023-02-25T10:55:45;98687.56;;;16.14;52.60
9035;BME280;4552;43.422;24.592;2023-02-25T10:58:39;98680.16;;;16.05;52.80
9035;BME280;4552;43.422;24.592;2023-02-25T11:01:13;98667.69;;;16.22;52.04
9035;BME280;4552;43.422;24.592;2023-02-25T11:03:51;98671.47;;;16.63;50.91
9035;BME280;4552;43.422;24.592;2023-02-25T11:06:24;98672.00;;;16.54;50.54
9035;BME280;4552;43.422;24.592;2023-02-25T11:08:53;98670.31;;;16.53;50.98
9035;BME280;4552;43.422;24.592;2023-02-25T11:11:39;98658.41;;;16.76;50.33
9035;BME280;4552;43.422;24.592;2023-02-25T11:17:44;98653.78;;;16.93;50.39
9035;BME280;4552;43.422;24.592;2023-02-25T11:20:24;98647.81;;;17.05;49.63
9035;BME280;4552;43.422;24.592;2023-02-25T11:22:55;98638.25;;;16.59;51.12
9035;BME280;4552;43.422;24.592;2023-02-25T11:25:36;98650.41;;;16.17;52.50
9035;BME280;4552;43.422;24.592;2023-02-25T11:28:16;98645.44;;;16.26;52.41
9035;BME280;4552;43.422;24.592;2023-02-25T11:30:54;98628.59;;;16.44;52.22
9035;BME280;4552;43.422;24.592;2023-02-25T11:33:45;98647.91;;;16.74;52.52
9035;BME280;4552;43.422;24.592;2023-02-25T11:36:20;98626.88;;;16.73;51.33
9035;BME280;4552;43.422;24.592;2023-02-25T11:38:48;98622.63;;;16.84;51.49
9035;BME280;4552;43.422;24.592;2023-02-25T11:41:18;98602.75;;;17.07;49.94
9035;BME280;4552;43.422;24.592;2023-02-25T11:43:47;98628.91;;;17.25;50.53
9035;BME280;4552;43.422;24.592;2023-02-25T11:46:22;98631.38;;;17.14;50.56
9035;BME280;4552;43.422;24.592;2023-02-25T11:48:58;98639.09;;;17.31;51.27
9035;BME280;4552;43.422;24.592;2023-02-25T11:51:30;98632.69;;;17.64;50.16
9035;BME280;4552;43.422;24.592;2023-02-25T11:54:17;98636.56;;;17.72;50.14
9035;BME280;4552;43.422;24.592;2023-02-25T11:56:50;98628.47;;;17.47;50.11
9035;BME280;4552;43.422;24.592;2023-02-25T11:59:30;98632.06;;;17.46;50.33
9035;BME280;4552;43.422;24.592;2023-02-25T12:02:18;98632.91;;;17.47;51.07
9035;BME280;4552;43.422;24.592;2023-02-25T12:08:32;98632.50;;;17.39;50.24
9035;BME280;4552;43.422;24.592;2023-02-25T12:14:41;98632.69;;;17.21;51.65
9035;BME280;4552;43.422;24.592;2023-02-25T12:17:49;98636.00;;;17.11;52.43
9035;BME280;4552;43.422;24.592;2023-02-25T12:20:45;98623.06;;;17.06;52.71
9035;BME280;4552;43.422;24.592;2023-02-25T12:26:35;98641.41;;;17.52;50.88
9035;BME280;4552;43.422;24.592;2023-02-25T12:29:37;98632.34;;;17.70;50.53
9035;BME280;4552;43.422;24.592;2023-02-25T12:32:38;98622.53;;;17.44;51.49
9035;BME280;4552;43.422;24.592;2023-02-25T12:41:37;98629.06;;;16.80;55.38
9035;BME280;4552;43.422;24.592;2023-02-25T12:44:20;98634.00;;;17.00;54.60
9035;BME280;4552;43.422;24.592;2023-02-25T12:47:03;98629.81;;;16.82;55.92
9035;BME280;4552;43.422;24.592;2023-02-25T12:49:53;98624.16;;;16.88;56.60
9035;BME280;4552;43.422;24.592;2023-02-25T12:52:33;98616.94;;;16.62;57.10
9035;BME280;4552;43.422;24.592;2023-02-25T12:55:20;98633.69;;;16.47;56.79
9035;BME280;4552;43.422;24.592;2023-02-25T12:58:16;98602.50;;;16.38;56.69
9035;BME280;4552;43.422;24.592;2023-02-25T13:04:02;98598.59;;;16.30;54.91
9035;BME280;4552;43.422;24.592;2023-02-25T13:06:47;98608.00;;;16.49;54.54
9035;BME280;4552;43.422;24.592;2023-02-25T13:09:38;98602.28;;;16.27;55.64
9035;BME280;4552;43.422;24.592;2023-02-25T13:15:12;98609.94;;;16.32;56.06
9035;BME280;4552;43.422;24.592;2023-02-25T13:18:08;98591.00;;;16.39;55.33
9035;BME280;4552;43.422;24.592;2023-02-25T13:20:55;98598.63;;;16.59;54.89
9035;BME280;4552;43.422;24.592;2023-02-25T13:23:50;98585.47;;;16.28;54.87
9035;BME280;4552;43.422;24.592;2023-02-25T13:26:36;98604.66;;;16.16;55.29
9035;BME280;4552;43.422;24.592;2023-02-25T13:29:30;98599.22;;;16.19;55.43
9035;BME280;4552;43.422;24.592;2023-02-25T13:32:16;98601.50;;;16.25;54.98
9035;BME280;4552;43.422;24.592;2023-02-25T13:35:00;98594.03;;;16.18;54.73
9035;BME280;4552;43.422;24.592;2023-02-25T13:37:39;98578.50;;;16.27;54.60
9035;BME280;4552;43.422;24.592;2023-02-25T13:40:34;98578.72;;;16.68;53.40
9035;BME280;4552;43.422;24.592;2023-02-25T13:43:16;98578.75;;;16.82;53.49
9035;BME280;4552;43.422;24.592;2023-02-25T13:46:00;98565.25;;;16.86;52.36
9035;BME280;4552;43.422;24.592;2023-02-25T13:48:57;98571.97;;;17.20;50.97
9035;BME280;4552;43.422;24.592;2023-02-25T13:51:53;98576.50;;;17.04;51.64
9035;BME280;4552;43.422;24.592;2023-02-25T13:54:37;98558.06;;;16.74;52.23
9035;BME280;4552;43.422;24.592;2023-02-25T13:57:24;98569.56;;;16.59;52.54
9035;BME280;4552;43.422;24.592;2023-02-25T14:00:23;98556.09;;;16.78;52.35
9035;BME280;4552;43.422;24.592;2023-02-25T14:03:16;98564.13;;;17.18;51.34
9035;BME280;4552;43.422;24.592;2023-02-25T14:05:58;98557.97;;;17.46;50.74
9035;BME280;4552;43.422;24.592;2023-02-25T14:08:46;98557.81;;;17.76;49.37
9035;BME280;4552;43.422;24.592;2023-02-25T14:11:32;98569.53;;;17.72;49.57
9035;BME280;4552;43.422;24.592;2023-02-25T14:14:37;98548.97;;;17.63;49.66